Latest Coastal Weather Observations for Bairnsdale

IDV60701

Issued at 10:21 pm EDT Monday 22 December 2014 (issued every 10 minutes, with the page automatically refreshed every 10 minutes)

About coastal observations | Map of coastal stations | Coastal observations for VIC | Marine services | Other Formats
Station Details ID: 085279 Name: BAIRNSDALE AIRPORT Lat: -37.88 Lon: 147.57 Height: 49.4 m
Data from the previous 72 hours. | See also: Recent months at Bairnsdale
Date/Time
EDT
Temp

°C
Wind Pressure Rain
since 9am
mm
Weather Cloud Vis
km
Sea
Height
m
Swell
Dir
 
Speed
knots
Gust
knots
hPa Trend Height
m
Period
s
Dir
22/10:00pm 21.3 ESE 5 7 1008.2 - 0.0 - - 10 - - - -
22/09:30pm 21.4 CALM 0 0 1008.8 - 0.0 - - 10 - - - -
22/09:00pm 20.9 WNW 3 5 1009.0 - 0.0 - Partly cloudy 10 - - - -
22/08:30pm 21.8 ESE 3 5 1008.9 - 0.0 - - 10 - - - -
22/08:00pm 22.3 S 7 9 1008.7 - 0.0 - - 10 - - - -
22/07:30pm 22.3 SW 10 12 1008.6 - 0.0 - - 10 - - - -
22/07:00pm 23.8 S 9 11 1008.2 - 0.0 - - 10 - - - -
22/06:30pm 24.9 SE 4 6 1008.6 - 0.0 - - 10 - - - -
22/06:00pm 25.1 S 5 8 1008.3 - 0.0 - - 10 - - - -
22/05:30pm 25.4 SE 7 9 1008.5 - 0.0 - - 10 - - - -
22/05:00pm 25.2 ESE 7 10 1008.9 - 0.0 - - 10 - - - -
22/04:30pm 25.4 ESE 10 14 1009.0 - 0.0 - - 10 - - - -
22/04:00pm 26.6 SE 11 15 1009.1 - 0.0 - - 10 - - - -
22/03:30pm 26.3 ESE 11 14 1009.3 - 0.0 - - 10 - - - -
22/03:00pm 27.1 SSE 11 14 1009.6 - 0.0 - - 10 - - - -
22/02:30pm 28.0 SE 11 13 1009.9 - 0.0 - - 10 - - - -
22/02:00pm 28.6 ESE 10 14 1010.2 - 0.0 - - 10 - - - -
22/01:30pm 29.2 ESE 8 13 1010.6 - 0.0 - - 10 - - - -
22/01:00pm 29.3 ESE 8 11 1010.9 - 0.0 - - 10 - - - -
22/12:30pm 29.6 SE 7 12 1011.4 - 0.0 - - 10 - - - -
22/12:00pm 29.2 ESE 7 12 1012.0 - 0.0 - - 10 - - - -
22/11:30am 29.1 ENE 4 7 1012.1 - 0.0 - - 10 - - - -
22/11:00am 28.2 ENE 4 5 1012.3 - 0.0 - - 10 - - - -
22/10:30am 27.1 NE 4 7 1012.6 - 0.0 - - 10 - - - -
22/10:00am 25.6 WSW 4 6 1012.8 - 0.0 - - 10 - - - -
22/09:30am 25.0 NW 4 5 1012.9 - 0.0 - - 10 - - - -
22/08:30am 21.4 NNW 4 6 1013.2 - 0.0 - - 10 - - - -
22/08:00am 19.7 NNW 7 9 1012.9 - 0.0 - - 10 - - - -
22/07:30am 17.6 NW 5 7 1012.8 - 0.0 - - 10 - - - -
22/07:00am 15.9 NNW 5 6 1012.7 - 0.0 - - 10 - - - -
22/06:30am 14.7 NNW 3 4 1012.7 - 0.0 - - 10 - - - -
22/06:00am 13.5 NW 4 6 1012.6 - 0.0 - - 10 - - - -
22/05:30am 13.5 NW 5 5 1012.5 - 0.0 - - 10 - - - -
22/05:00am 14.0 NNW 6 7 1012.3 - 0.0 - - 10 - - - -
22/04:30am 14.2 CALM 0 4 1012.2 - 0.0 - - 10 - - - -
22/04:00am 14.3 SW 3 4 1012.2 - 0.0 - - 10 - - - -
22/03:30am 14.7 SW 4 5 1012.3 - 0.0 - - 10 - - - -
22/03:00am 15.7 NNW 4 5 1012.2 - 0.0 - - 47 - - - -
22/02:30am 16.2 NNW 5 6 1012.3 - 0.0 - - 10 - - - -
22/02:00am 16.7 N 5 7 1012.5 - 0.0 - - 10 - - - -
22/01:30am 18.5 NNE 6 7 1012.8 - 0.0 - - 10 - - - -
22/01:00am 19.5 ENE 6 8 1013.0 - 0.0 - - 10 - - - -
22/12:30am 19.1 E 7 8 1013.1 - 0.0 - - 10 - - - -
22/12:00am 18.9 ESE 6 7 1013.1 - 0.0 - - 50 - - - -
 
Date/Time
EDT
Temp

°C
Wind Pressure Rain
since 9am
mm
Weather Cloud Vis
km
Sea
Height
m
Swell
Dir
 
Speed
knots
Gust
knots
hPa Trend Height
m
Period
s
Dir
21/11:30pm 19.7 SE 7 8 1013.2 - 0.0 - - 10 - - - -
21/11:00pm 19.6 E 7 8 1013.1 - 0.0 - - 10 - - - -
21/10:30pm 20.0 ESE 7 8 1013.3 - 0.0 - - 10 - - - -
21/10:00pm 20.3 ESE 7 8 1013.2 - 0.0 - - 10 - - - -
21/09:30pm 21.2 ENE 5 7 1013.0 - 0.0 - - 10 - - - -
21/09:00pm 21.4 E 6 8 1012.8 - 0.0 - - 10 - - - -
21/08:30pm 22.4 E 5 7 1012.8 - 0.0 - - 10 - - - -
21/08:00pm 23.6 E 7 10 1012.7 - 0.0 - - 10 - - - -
21/07:30pm 24.8 E 7 9 1012.6 - 0.0 - - 10 - - - -
21/07:00pm 25.5 E 6 8 1012.7 - 0.0 - - 10 - - - -
21/06:30pm 25.0 E 7 10 1012.7 - 0.0 - - 10 - - - -
21/06:00pm 25.5 ENE 8 11 1012.7 - 0.0 - - 10 - - - -
21/05:30pm 25.7 ESE 8 10 1012.9 - 0.0 - Partly cloudy 10 - - - -
21/05:00pm 24.6 E 9 12 1013.0 - 0.0 - - 10 - - - -
21/04:30pm 25.2 ESE 8 10 1013.3 - 0.0 - - 10 - - - -
21/04:00pm 25.3 E 9 11 1013.3 - 0.0 - - 10 - - - -
21/03:30pm 24.9 ESE 9 12 1013.7 - 0.0 - - 10 - - - -
21/03:00pm 24.8 ESE 10 15 1013.8 - 0.0 - - 10 - - - -
21/02:30pm 24.8 ESE 9 11 1014.2 - 0.0 - - 10 - - - -
21/02:00pm 24.5 E 7 11 1014.2 - 0.0 - - 10 - - - -
21/01:30pm 24.0 SE 10 13 1014.5 - 0.0 - - 10 - - - -
21/01:00pm 23.0 SE 10 13 1014.7 - 0.0 - - 10 - - - -
21/12:30pm 23.4 SE 9 15 1014.8 - 0.0 - - 10 - - - -
21/12:00pm 23.8 E 7 12 1014.8 - 0.0 - - 10 - - - -
21/11:30am 23.3 E 6 9 1015.1 - 0.0 - - 10 - - - -
21/11:00am 22.4 ENE 7 12 1015.3 - 0.0 - - 10 - - - -
21/10:30am 21.4 ENE 6 8 1015.5 - 0.0 - - 10 - - - -
21/10:00am 20.2 ENE 7 13 1015.6 - 0.0 - - 10 - - - -
21/09:30am 19.6 ENE 9 15 1015.9 - 0.0 - - 10 - - - -
21/09:00am 19.0 ENE 6 9 1016.5 - 0.0 - - 10 - - - -
21/08:30am 17.3 NE 6 8 1016.5 - 0.0 - - 10 - - - -
21/08:00am 15.7 NE 3 5 1016.5 - 0.0 - - 10 - - - -
21/07:30am 14.1 CALM 0 0 1016.1 - 0.0 - - 10 - - - -
21/07:00am 13.4 ENE 3 4 1015.6 - 0.0 - - 10 - - - -
21/06:31am 11.9 ENE 3 4 1015.4 - 0.0 - - 10 - - - -
21/06:30am 11.8 ENE 3 4 1015.4 - 0.0 - - 10 - - - -
21/06:04am 10.0 ENE 3 3 1015.2 - 0.0 - - 5 - - - -
21/06:00am 10.2 ENE 3 3 1015.2 - 0.0 - - 10 - - - -
21/05:39am 11.1 NE 3 4 1015.2 - 0.0 - - 10 - - - -
21/05:30am 10.7 NE 3 3 1015.2 - 0.0 - - 9 - - - -
21/05:20am 10.6 NE 2 4 1015.4 - 0.0 - - 4 - - - -
21/05:00am 11.2 NE 3 4 1015.3 - 0.0 - - 10 - - - -
21/04:30am 11.7 NNE 3 4 1015.4 - 0.0 - - 8 - - - -
21/04:00am 12.1 ENE 5 6 1015.5 - 0.0 - - 10 - - - -
21/03:30am 12.3 ENE 5 6 1015.7 - 0.0 - - 10 - - - -
21/03:00am 12.4 E 4 5 1016.0 - 0.0 - - 10 - - - -
21/02:30am 12.8 NE 1 3 1016.4 - 0.0 - - 10 - - - -
21/02:00am 12.8 NNE 4 5 1016.7 - 0.0 - - 10 - - - -
21/01:30am 13.1 N 5 6 1016.8 - 0.0 - - 10 - - - -
21/01:00am 13.2 NNE 4 4 1016.9 - 0.0 - - 10 - - - -
21/12:30am 13.0 N 3 4 1017.2 - 0.0 - - 10 - - - -
21/12:00am 13.8 NNE 4 5 1017.5 - 0.0 - - 10 - - - -
 
Date/Time
EDT
Temp

°C
Wind Pressure Rain
since 9am
mm
Weather Cloud Vis
km
Sea
Height
m
Swell
Dir
 
Speed
knots
Gust
knots
hPa Trend Height
m
Period
s
Dir
20/11:30pm 13.6 N 5 5 1017.7 - 0.0 - - 10 - - - -
20/11:00pm 13.8 N 4 4 1017.9 - 0.0 - - 10 - - - -
20/10:30pm 13.3 NE 3 4 1018.0 - 0.0 - - 10 - - - -
20/10:00pm 14.6 NNE 3 4 1018.1 - 0.0 - - 10 - - - -
20/09:30pm 14.9 E 3 4 1018.1 - 0.0 - - 10 - - - -
20/09:00pm 15.8 ESE 4 4 1017.9 - 0.0 - - 10 - - - -
20/08:30pm 16.4 ESE 5 6 1017.7 - 0.0 - - 10 - - - -
20/08:00pm 17.4 SE 7 9 1017.4 - 0.0 - - 10 - - - -
20/07:30pm 18.0 SE 10 13 1017.2 - 0.0 - - 10 - - - -
20/07:00pm 18.4 SE 11 14 1016.8 - 0.0 - - 10 - - - -
20/06:30pm 19.5 SE 9 12 1016.6 - 0.0 - - 10 - - - -
20/06:00pm 20.1 SE 8 13 1016.3 - 0.0 - - 10 - - - -
20/05:30pm 20.2 SE 11 14 1016.2 - 0.0 - - 10 - - - -
20/05:00pm 20.9 SSE 11 15 1016.2 - 0.0 - - 10 - - - -
20/04:30pm 21.4 SE 9 13 1016.2 - 0.0 - - 10 - - - -
20/04:00pm 21.8 SSE 9 15 1016.3 - 0.0 - - 10 - - - -
20/03:30pm 22.6 SSW 8 14 1016.5 - 0.0 - - 10 - - - -
20/03:00pm 21.9 SSW 8 16 1016.7 - 0.0 - Mostly clear 10 - - - -
20/02:30pm 21.7 SW 9 12 1016.9 - 0.0 - Partly cloudy 10 - - - -
20/02:00pm 21.1 SSW 11 17 1017.1 - 0.0 - Partly cloudy 10 - - - -
20/01:30pm 21.4 WSW 10 15 1017.3 - 0.0 - Partly cloudy 10 - - - -
20/01:00pm 20.5 SW 10 14 1017.4 - 0.0 - Partly cloudy 10 - - - -
20/12:30pm 20.9 WSW 10 17 1017.7 - 0.0 - Partly cloudy 10 - - - -
20/12:00pm 20.1 W 9 13 1017.9 - 0.0 - - 10 - - - -
20/11:30am 19.4 WSW 10 20 1018.1 - 0.0 - Partly cloudy 10 - - - -
20/11:00am 19.1 W 9 13 1018.3 - 0.0 - Partly cloudy 10 - - - -
20/10:30am 18.5 WSW 9 14 1018.4 - 0.0 - - 10 - - - -
20/10:00am 18.1 WSW 9 13 1018.4 - 0.0 - - 10 - - - -
20/09:30am 17.2 WSW 8 13 1018.4 - 0.0 - - 10 - - - -
20/09:00am 16.3 W 9 14 1018.4 - 0.2 - - 10 - - - -
20/08:30am 15.5 WNW 7 9 1018.3 - 0.2 - - 10 - - - -
20/08:00am 14.2 NW 8 11 1018.3 - 0.2 - - 10 - - - -
20/07:30am 12.4 NW 7 9 1018.0 - 0.2 - - 10 - - - -
20/07:00am 10.8 NW 6 8 1018.0 - 0.2 - - 10 - - - -
20/06:30am 9.5 WNW 8 9 1017.8 - 0.2 - - 10 - - - -
20/06:00am 8.8 NW 6 8 1017.7 - 0.2 - - 10 - - - -
20/05:30am 8.6 NW 6 8 1017.7 - 0.2 - - 10 - - - -
20/05:00am 8.8 NW 6 8 1017.5 - 0.2 - - 10 - - - -
20/04:30am 8.9 NW 6 7 1017.4 - 0.2 - - 10 - - - -
20/04:00am 9.0 WNW 7 9 1017.3 - 0.2 - - 10 - - - -
20/03:30am 9.4 NW 7 9 1017.4 - 0.2 - - 10 - - - -
20/03:00am 9.4 WNW 6 7 1017.6 - 0.2 - - 10 - - - -
20/02:30am 9.3 WNW 6 8 1017.8 - 0.2 - - 10 - - - -
20/02:00am 9.5 NW 8 9 1018.0 - 0.2 - - 10 - - - -
20/01:30am 9.3 NW 7 8 1018.3 - 0.2 - - 10 - - - -
20/01:00am 9.7 NW 6 8 1018.6 - 0.2 - - 10 - - - -
20/12:30am 11.1 WNW 7 8 1018.7 - 0.2 - - 10 - - - -
20/12:00am 11.9 W 7 8 1019.0 - 0.2 - Mostly clear 10 - - - -
 
Date/Time
EDT
Temp

°C
Wind Pressure Rain
since 9am
mm
Weather Cloud Vis
km
Sea
Height
m
Swell
Dir
 
Speed
knots
Gust
knots
hPa Trend Height
m
Period
s
Dir
19/11:30pm 11.8 WNW 7 9 1019.1 - 0.2 - - 10 - - - -
19/11:00pm 11.8 WNW 7 9 1019.2 - 0.2 - - 10 - - - -
19/10:30pm 11.6 WNW 6 8 1019.2 - 0.2 - - 10 - - - -

Other Formats:

Comma delimited format used in spreadsheet applications
http://www.bom.gov.au/fwo/IDV60701/IDV60701.94912.axf

JavaScript Object Notation format (JSON) in row-major order
http://www.bom.gov.au/fwo/IDV60701/IDV60701.94912.json